Time;durP1;ratioP1;P1;durP2;ratioP2;P2;SDS_P1;SDS_P2;PMS_P1;PMS_P2;Temp;Humidity;BMP_temperature;BMP_pressure;BME280_temperature;BME280_humidity;BME280_pressure;Samples;Min_cycle;Max_cycle;Signal;HPM_P1;HPM_P2
2021/04/19 00:02:19;;;;;;;17.02;8.70;;;;;;;5.95;78.50;99286.84;5064006;28;20352;-80
2021/04/19 00:04:45;;;;;;;19.40;9.38;;;;;;;5.99;78.51;99290.09;5070324;28;20048;-80
2021/04/19 00:07:13;;;;;;;17.65;9.50;;;;;;;5.89;78.67;99271.25;5070373;28;20049;-80
2021/04/19 00:09:55;;;;;;;19.20;9.52;;;;;;;5.89;78.43;99283.91;5053694;28;20051;-80
2021/04/19 00:12:30;;;;;;;16.77;9.38;;;;;;;5.74;78.31;99272.78;5067610;28;20065;-80
2021/04/19 00:15:21;;;;;;;15.80;8.77;;;;;;;5.82;77.71;99264.75;5065540;28;20048;-80
2021/04/19 00:17:53;;;;;;;22.13;9.82;;;;;;;5.96;77.61;99269.66;5057872;28;20051;-80
2021/04/19 00:20:22;;;;;;;19.45;9.88;;;;;;;5.99;77.56;99276.59;5062101;28;20044;-79
2021/04/19 00:22:49;;;;;;;25.67;11.02;;;;;;;5.90;78.15;99267.56;5067932;28;20074;-80
2021/04/19 00:25:16;;;;;;;17.30;10.10;;;;;;;5.88;78.51;99272.25;5061138;28;20052;-80
2021/04/19 00:27:43;;;;;;;22.33;11.23;;;;;;;5.78;78.22;99260.66;5069850;28;20508;-79
2021/04/19 00:30:11;;;;;;;22.25;11.13;;;;;;;5.84;78.17;99273.53;5061967;28;20049;-80
2021/04/19 00:32:39;;;;;;;20.10;11.27;;;;;;;5.85;78.52;99273.38;5074119;28;20048;-80
2021/04/19 00:35:07;;;;;;;16.77;9.98;;;;;;;5.79;78.44;99257.81;5073578;28;20044;-80
2021/04/19 00:40:18;;;;;;;18.73;9.75;;;;;;;5.95;77.86;99267.09;5067236;28;20055;-80
2021/04/19 00:42:46;;;;;;;16.40;9.23;;;;;;;5.90;77.94;99266.69;5078561;28;20045;-80
2021/04/19 00:45:14;;;;;;;16.35;9.82;;;;;;;5.93;77.72;99263.69;5073605;28;20045;-80
2021/04/19 00:47:40;;;;;;;20.02;9.73;;;;;;;5.90;77.29;99251.38;5073652;28;20063;-80
2021/04/19 00:50:09;;;;;;;20.08;10.27;;;;;;;5.88;77.87;99261.47;5085670;28;20048;-80
2021/04/19 00:52:35;;;;;;;18.77;10.57;;;;;;;5.79;78.27;99257.81;5072827;28;20044;-80
2021/04/19 00:55:01;;;;;;;19.80;9.70;;;;;;;5.67;78.61;99259.03;5073268;28;20420;-80
2021/04/19 00:57:30;;;;;;;23.85;10.18;;;;;;;5.73;78.57;99263.81;5074017;28;20102;-80
2021/04/19 00:59:56;;;;;;;18.25;10.80;;;;;;;5.59;78.52;99257.09;5073908;28;20139;-80
2021/04/19 01:02:22;;;;;;;16.17;9.48;;;;;;;5.74;78.40;99259.28;5074065;28;20102;-80
2021/04/19 01:04:49;;;;;;;19.38;11.05;;;;;;;5.86;78.13;99260.78;5073304;28;20515;-81
2021/04/19 01:07:15;;;;;;;17.77;10.52;;;;;;;5.57;78.73;99248.31;5074214;28;20052;-80
2021/04/19 01:09:41;;;;;;;16.40;9.80;;;;;;;5.66;78.77;99262.72;5073906;28;20490;-80
2021/04/19 01:12:08;;;;;;;19.30;10.50;;;;;;;5.71;78.45;99256.91;5059609;28;20110;-81
2021/04/19 01:14:35;;;;;;;23.70;11.32;;;;;;;5.68;78.46;99261.56;5071972;28;20090;-80
2021/04/19 01:17:01;;;;;;;14.88;9.35;;;;;;;5.65;79.00;99258.34;5072271;28;20080;-80
2021/04/19 01:19:28;;;;;;;24.33;11.75;;;;;;;5.64;78.58;99256.63;5073922;28;20436;-80
2021/04/19 01:21:55;;;;;;;22.27;11.68;;;;;;;5.63;78.46;99244.16;5073151;28;20044;-80
2021/04/19 01:24:21;;;;;;;20.60;11.40;;;;;;;5.89;77.58;99259.63;5073130;28;20381;-80
2021/04/19 01:26:47;;;;;;;18.83;10.57;;;;;;;5.89;77.52;99263.16;5073012;28;20056;-80
2021/04/19 01:29:13;;;;;;;20.35;10.40;;;;;;;5.77;77.91;99262.53;5073655;28;20429;-80
2021/04/19 01:31:40;;;;;;;19.35;11.63;;;;;;;5.75;78.08;99263.66;5073631;28;20056;-80
2021/04/19 01:34:06;;;;;;;21.58;11.48;;;;;;;5.83;77.54;99258.38;5072931;28;20416;-80
2021/04/19 01:36:33;;;;;;;19.38;10.73;;;;;;;5.67;77.92;99259.03;5072503;28;20054;-80
2021/04/19 01:39:00;;;;;;;15.73;9.52;;;;;;;5.81;77.46;99250.44;5073260;28;20071;-80
2021/04/19 01:41:29;;;;;;;19.50;10.70;;;;;;;5.84;77.11;99255.53;5081524;28;20093;-80
2021/04/19 01:43:55;;;;;;;19.75;10.98;;;;;;;5.76;77.43;99259.97;5080775;28;20052;-80
2021/04/19 01:46:22;;;;;;;19.77;10.82;;;;;;;5.76;78.08;99241.09;5090012;28;20101;-80
2021/04/19 01:48:48;;;;;;;20.13;10.85;;;;;;;5.83;78.15;99247.59;5093195;28;20048;-80
2021/04/19 01:51:15;;;;;;;18.67;10.20;;;;;;;5.74;78.87;99241.25;5093605;28;20431;-80
2021/04/19 01:53:41;;;;;;;21.65;11.60;;;;;;;5.67;78.51;99232.94;5093148;28;20059;-80
2021/04/19 01:56:08;;;;;;;24.17;11.80;;;;;;;5.67;78.64;99235.63;5092831;28;20044;-80
2021/04/19 01:58:35;;;;;;;20.15;10.55;;;;;;;5.56;78.93;99232.28;5093177;28;20078;-80
2021/04/19 02:01:01;;;;;;;19.70;11.05;;;;;;;5.64;78.49;99235.91;5092986;28;20040;-79
2021/04/19 02:03:48;;;;;;;21.42;11.10;;;;;;;5.57;78.70;99236.66;5093102;28;20052;-80
2021/04/19 02:06:23;;;;;;;17.48;11.15;;;;;;;5.78;77.65;99244.47;5075439;28;20047;-80
2021/04/19 02:08:55;;;;;;;21.45;10.60;;;;;;;5.62;78.29;99240.59;5093591;28;20058;-80
2021/04/19 02:11:32;;;;;;;19.52;10.90;;;;;;;5.52;78.66;99247.91;5092704;28;20089;-80
2021/04/19 02:14:06;;;;;;;18.33;11.10;;;;;;;5.62;78.56;99242.47;5093299;28;20048;-80
2021/04/19 02:16:45;;;;;;;19.92;10.10;;;;;;;5.60;78.65;99241.75;5092621;28;20047;-80
2021/04/19 02:19:18;;;;;;;18.85;10.38;;;;;;;5.47;78.69;99234.88;5081559;28;20051;-80
2021/04/19 02:21:47;;;;;;;18.98;10.07;;;;;;;5.53;78.51;99236.13;5092804;28;20052;-80
2021/04/19 02:24:18;;;;;;;20.50;10.25;;;;;;;5.60;78.08;99239.06;5091964;28;20055;-80
2021/04/19 02:26:49;;;;;;;18.60;10.60;;;;;;;5.63;77.71;99242.31;5092244;28;20056;-80
2021/04/19 02:29:20;;;;;;;19.35;10.68;;;;;;;5.60;78.00;99234.53;5092527;28;20093;-80
2021/04/19 02:31:53;;;;;;;20.33;11.63;;;;;;;5.56;78.68;99233.13;5092831;28;20059;-81
2021/04/19 02:34:21;;;;;;;20.55;11.23;;;;;;;5.41;79.12;99224.69;5082779;28;20052;-80
2021/04/19 02:36:50;;;;;;;22.52;11.02;;;;;;;5.57;78.96;99237.53;5090543;28;20124;-80
2021/04/19 02:39:17;;;;;;;18.50;11.18;;;;;;;5.52;78.21;99222.78;5092448;28;20040;-80
2021/04/19 02:41:49;;;;;;;18.45;10.95;;;;;;;5.55;78.61;99230.56;5092202;28;20052;-81
2021/04/19 02:44:17;;;;;;;22.95;10.73;;;;;;;5.62;78.55;99242.47;5092198;28;20044;-81
2021/04/19 02:46:44;;;;;;;17.38;9.75;;;;;;;5.54;78.95;99232.44;5082696;28;20113;-80
2021/04/19 02:49:12;;;;;;;18.42;10.75;;;;;;;5.70;78.36;99241.72;5070055;28;20053;-80
2021/04/19 02:51:41;;;;;;;20.02;10.70;;;;;;;5.54;78.96;99228.88;5072728;28;20048;-80
2021/04/19 02:54:10;;;;;;;19.70;11.07;;;;;;;5.49;79.15;99240.97;5053284;28;20082;-80
2021/04/19 02:56:38;;;;;;;18.90;11.02;;;;;;;5.54;79.27;99236.97;5074014;28;20345;-80
2021/04/19 02:59:07;;;;;;;20.10;11.13;;;;;;;5.57;78.55;99240.22;5091425;28;20071;-80
2021/04/19 03:01:36;;;;;;;19.90;11.82;;;;;;;5.62;78.32;99235.22;5092077;28;20496;-80
2021/04/19 03:04:06;;;;;;;21.17;10.40;;;;;;;5.44;78.97;99224.38;5074629;28;20059;-80
2021/04/19 03:06:32;;;;;;;;;;;;;;;5.67;78.38;99238.31;5071795;28;20044;-81
2021/04/19 03:09:01;;;;;;;17.40;10.85;;;;;;;5.60;78.72;99236.34;5084986;28;19920;-81
2021/04/19 03:11:33;;;;;;;22.67;11.68;;;;;;;5.43;78.53;99219.16;5083599;28;20041;-81
2021/04/19 03:14:03;;;;;;;19.27;10.93;;;;;;;5.51;78.73;99224.66;5077991;28;20052;-81
2021/04/19 03:16:31;;;;;;;15.40;9.32;;;;;;;5.56;78.74;99229.59;5091091;28;20056;-80
2021/04/19 03:19:00;;;;;;;20.40;10.95;;;;;;;5.49;78.61;99232.03;5091196;28;20079;-79
2021/04/19 03:21:28;;;;;;;22.67;10.65;;;;;;;5.53;78.85;99235.28;5091374;28;20052;-80
2021/04/19 03:23:57;;;;;;;22.75;11.48;;;;;;;5.56;78.63;99237.69;5088202;28;20044;-80
2021/04/19 03:26:27;;;;;;;19.67;11.57;;;;;;;5.66;77.73;99227.66;5070576;28;20044;-80
2021/04/19 03:28:54;;;;;;;25.42;12.93;;;;;;;5.78;77.20;99234.56;5071079;28;20056;-79
2021/04/19 03:31:23;;;;;;;19.75;12.13;;;;;;;5.70;77.85;99231.75;5089982;28;20047;-80
2021/04/19 03:33:53;;;;;;;20.38;11.48;;;;;;;5.56;78.72;99230.44;5073953;28;20110;-81
2021/04/19 03:36:21;;;;;;;19.42;10.70;;;;;;;5.61;78.35;99232.66;5074553;28;20053;-78
2021/04/19 03:38:49;;;;;;;20.05;10.82;;;;;;;5.68;77.56;99225.69;5071538;28;20052;-79
2021/04/19 03:41:17;;;;;;;19.13;11.13;;;;;;;5.68;78.25;99231.91;5086033;28;20101;-79
2021/04/19 03:43:46;;;;;;;23.90;11.55;;;;;;;5.68;78.43;99228.38;5091614;28;20048;-79
2021/04/19 03:46:15;;;;;;;21.13;11.85;;;;;;;5.65;78.31;99231.38;5075093;28;20097;-79
2021/04/19 03:48:43;;;;;;;22.47;11.03;;;;;;;5.57;78.88;99215.97;5051651;28;20459;-80
2021/04/19 03:51:16;;;;;;;19.77;12.40;;;;;;;5.64;78.54;99224.28;5073156;28;20340;-79
2021/04/19 03:53:43;;;;;;;22.08;11.00;;;;;;;5.68;78.04;99215.72;5091660;28;20060;-80
2021/04/19 03:56:12;;;;;;;19.38;10.00;;;;;;;5.77;77.57;99222.06;5085819;28;20051;-80
2021/04/19 03:58:39;;;;;;;22.33;11.35;;;;;;;5.70;78.13;99222.81;5071464;28;20296;-80
2021/04/19 04:01:24;;;;;;;21.88;12.40;;;;;;;5.65;77.45;99210.63;5075530;28;20500;-80
2021/04/19 04:03:54;;;;;;;23.35;13.23;;;;;;;5.70;77.65;99220.97;5063953;28;20531;-80
2021/04/19 04:06:32;;;;;;;20.58;12.18;;;;;;;5.75;77.90;99218.69;5074639;28;20040;-80
2021/04/19 04:08:59;;;;;;;19.77;10.77;;;;;;;5.67;78.58;99215.88;5092571;28;20093;-80
2021/04/19 04:11:28;;;;;;;24.10;12.52;;;;;;;5.64;78.16;99217.03;5084331;28;20125;-80
2021/04/19 04:13:55;;;;;;;19.92;11.10;;;;;;;5.70;77.69;99214.72;5091828;28;20516;-80
2021/04/19 04:26:35;;;;;;;23.23;11.73;;;;;;;5.52;77.76;99207.44;4925324;28;20044;-82
2021/04/19 04:39:31;;;;;;;21.45;11.52;;;;;;;5.70;77.63;99222.81;4967429;28;20410;-83
2021/04/19 04:42:20;;;;;;;21.10;12.30;;;;;;;5.72;79.28;99229.78;5062008;28;20132;-83
2021/04/19 04:44:59;;;;;;;24.92;12.50;;;;;;;5.78;79.66;99229.16;5083271;28;20047;-83
2021/04/19 04:47:31;;;;;;;23.85;12.45;;;;;;;5.74;80.91;99230.47;5074649;28;20041;-83
2021/04/19 04:50:13;;;;;;;25.52;12.15;;;;;;;5.74;80.89;99232.31;5074364;28;20542;-83
2021/04/19 04:52:49;;;;;;;27.73;12.93;;;;;;;5.74;81.12;99226.91;5092160;28;20163;-83
2021/04/19 04:58:05;;;;;;;25.30;13.18;;;;;;;5.66;81.59;99224.97;5089585;28;20051;-83
2021/04/19 05:00:33;;;;;;;28.60;14.27;;;;;;;5.59;83.17;99222.03;5094556;28;20442;-83
2021/04/19 05:03:07;;;;;;;22.90;12.77;;;;;;;5.46;84.27;99206.19;5094553;28;20048;-84
2021/04/19 05:27:15;;;;;;;24.73;13.55;;;;;;;5.52;83.61;99223.63;4964132;28;20430;-84
2021/04/19 05:30:25;;;;;;;23.85;12.98;;;;;;;5.55;83.57;99225.19;5013817;28;20062;-83
2021/04/19 05:33:25;;;;;;;23.17;13.40;;;;;;;5.55;84.52;99244.91;5093965;28;20067;-84
2021/04/19 05:36:08;;;;;;;;;;;;;;;;;;;;;
2021/04/19 05:38:45;;;;;;;28.75;15.68;;;;;;;5.52;84.63;99239.81;5075804;28;20048;-83
2021/04/19 05:41:20;;;;;;;30.38;15.82;;;;;;;5.55;84.28;99252.16;5093890;28;20052;-83
2021/04/19 05:43:50;;;;;;;31.27;16.85;;;;;;;5.62;84.71;99250.56;5093800;28;20048;-83
2021/04/19 05:46:18;;;;;;;32.88;17.77;;;;;;;5.59;84.32;99245.47;5092372;28;20048;-83
2021/04/19 05:48:46;;;;;;;28.52;15.77;;;;;;;5.62;84.30;99256.78;5074020;28;20045;-83
2021/04/19 05:51:28;;;;;;;29.48;15.85;;;;;;;5.55;85.25;99262.94;5073094;28;20404;-82
2021/04/19 05:53:56;;;;;;;35.05;16.08;;;;;;;5.54;85.71;99267.50;5074150;28;20497;-83
2021/04/19 05:56:57;;;;;;;26.55;14.00;;;;;;;5.51;85.95;99257.00;5072952;28;20052;-83
2021/04/19 05:59:36;;;;;;;28.83;16.38;;;;;;;5.61;85.23;99263.19;5053723;28;20132;-83
2021/04/19 06:02:06;;;;;;;30.25;16.20;;;;;;;5.48;84.96;99250.06;5060981;28;20051;-83
2021/04/19 06:04:38;;;;;;;24.90;15.32;;;;;;;5.45;85.60;99238.72;5093197;28;20055;-83
2021/04/19 06:07:16;;;;;;;32.97;16.88;;;;;;;5.66;84.80;99257.31;5090740;28;20067;-83
2021/04/19 06:09:51;;;;;;;28.20;16.42;;;;;;;5.62;85.51;99256.78;5066373;28;20306;-82
2021/04/19 06:12:21;;;;;;;28.80;15.55;;;;;;;5.73;84.87;99273.78;5053269;28;20138;-83
2021/04/19 06:14:51;;;;;;;27.98;15.00;;;;;;;5.59;86.55;99261.66;5092660;28;20047;-83
2021/04/19 06:17:19;;;;;;;29.90;15.10;;;;;;;5.55;85.68;99247.59;5079145;28;20036;-81
2021/04/19 06:19:50;;;;;;;27.50;15.65;;;;;;;5.78;85.60;99263.38;5051183;28;20290;-81
2021/04/19 06:22:17;;;;;;;32.50;15.75;;;;;;;5.89;85.67;99262.31;5073729;28;20415;-82
2021/04/19 06:24:56;;;;;;;34.13;16.73;;;;;;;5.91;84.48;99254.91;5073235;28;20052;-82
2021/04/19 06:27:24;;;;;;;27.50;15.88;;;;;;;5.96;83.96;99256.16;5071383;28;20044;-82
2021/04/19 06:29:52;;;;;;;28.27;16.58;;;;;;;6.00;84.62;99265.66;5072065;28;20054;-83
2021/04/19 06:32:21;;;;;;;27.92;15.85;;;;;;;5.98;84.75;99267.66;5071914;28;20040;-83
2021/04/19 06:34:50;;;;;;;29.83;17.77;;;;;;;5.88;84.45;99244.44;5072042;28;20484;-82
2021/04/19 06:37:18;;;;;;;35.08;16.80;;;;;;;5.95;85.22;99264.41;5072128;28;20053;-83
2021/04/19 06:43:42;;;;;;;30.48;16.63;;;;;;;5.94;86.34;99251.91;5084558;28;20095;-82
2021/04/19 06:47:05;;;;;;;32.85;17.13;;;;;;;6.09;86.58;99268.47;5070927;28;20052;-82
2021/04/19 06:49:56;;;;;;;28.80;17.13;;;;;;;5.99;86.11;99253.19;4994137;28;20079;-82
2021/04/19 06:52:23;;;;;;;32.55;15.95;;;;;;;5.97;85.55;99251.63;5031765;28;20065;-82
2021/04/19 07:02:00;;;;;;;37.05;17.98;;;;;;;6.26;84.79;99267.59;5006805;28;20488;-82
2021/04/19 07:04:28;;;;;;;31.75;16.42;;;;;;;6.23;84.77;99248.16;5011835;28;20065;-82
2021/04/19 07:07:05;;;;;;;28.48;16.35;;;;;;;6.28;86.15;99275.53;5030224;28;20079;-83
2021/04/19 07:09:36;;;;;;;32.33;16.33;;;;;;;6.15;85.58;99257.03;5059265;28;20036;-83
2021/04/19 07:12:09;;;;;;;31.55;16.33;;;;;;;6.34;85.30;99273.09;5051416;28;20389;-83
2021/04/19 07:14:38;;;;;;;34.30;15.98;;;;;;;6.32;85.19;99271.53;5063076;28;20055;-83
2021/04/19 07:17:05;;;;;;;28.73;16.08;;;;;;;6.26;85.10;99267.59;5071269;28;20157;-83
2021/04/19 07:19:33;;;;;;;32.28;18.25;;;;;;;6.30;85.31;99260.88;5066947;28;20047;-83
2021/04/19 07:22:04;;;;;;;40.30;19.55;;;;;;;6.35;85.21;99258.59;5053274;28;20057;-83
2021/04/19 07:24:35;;;;;;;30.95;16.73;;;;;;;6.29;84.54;99252.94;5055194;28;20049;-84
2021/04/19 07:27:03;;;;;;;39.80;17.27;;;;;;;6.19;84.69;99248.47;5072849;28;20550;-83
2021/04/19 07:29:38;;;;;;;33.88;17.42;;;;;;;6.39;83.57;99275.31;5073234;28;20056;-83
2021/04/19 07:32:05;;;;;;;29.48;16.35;;;;;;;6.11;84.52;99244.84;5073020;28;20551;-83
2021/04/19 07:34:35;;;;;;;37.45;18.27;;;;;;;6.39;83.34;99269.91;5071857;28;20094;-83
2021/04/19 07:37:03;;;;;;;36.95;18.73;;;;;;;6.18;84.19;99240.53;5073030;28;20052;-83
2021/04/19 07:42:23;;;;;;;28.45;15.90;;;;;;;6.27;85.21;99242.28;5047734;28;20052;-82
2021/04/19 07:44:51;;;;;;;30.88;16.15;;;;;;;6.41;83.94;99248.16;5070506;28;20508;-80
2021/04/19 07:47:32;;;;;;;26.67;15.50;;;;;;;6.56;84.58;99254.69;5070989;28;20056;-80
2021/04/19 07:50:15;;;;;;;29.90;15.98;;;;;;;6.67;84.58;99245.47;5057513;28;20051;-80
2021/04/19 07:52:55;;;;;;;28.42;16.75;;;;;;;6.89;84.36;99263.03;5059947;28;20056;-80
2021/04/19 07:55:27;;;;;;;31.10;15.50;;;;;;;6.88;83.26;99255.91;5070455;28;20041;-84
2021/04/19 07:57:56;;;;;;;29.85;15.98;;;;;;;7.00;83.26;99241.16;5071119;28;20045;-83
2021/04/19 08:00:32;;;;;;;27.65;16.25;;;;;;;7.34;83.23;99245.69;5071385;28;20052;-82
2021/04/19 08:03:03;;;;;;;30.38;17.40;;;;;;;7.37;82.48;99245.38;5071534;28;20057;-83
2021/04/19 08:05:34;;;;;;;32.95;16.85;;;;;;;7.36;82.77;99248.25;5072920;28;20064;-83
2021/04/19 08:08:03;;;;;;;31.42;16.90;;;;;;;7.22;83.14;99236.19;5091475;28;20048;-83
2021/04/19 08:10:32;;;;;;;32.00;15.80;;;;;;;7.39;82.62;99261.44;5091247;28;20052;-82
2021/04/19 08:13:09;;;;;;;30.48;15.50;;;;;;;7.25;82.59;99249.38;5091395;28;20151;-81
2021/04/19 08:15:38;;;;;;;25.27;14.43;;;;;;;6.96;82.28;99274.91;5090351;28;20511;-82
2021/04/19 08:18:10;;;;;;;25.50;14.85;;;;;;;6.79;83.08;99264.97;5062931;28;20052;-81
2021/04/19 08:21:09;;;;;;;26.73;15.82;;;;;;;6.48;83.22;99243.81;5062657;28;20102;-81
2021/04/19 08:24:23;;;;;;;26.27;15.05;;;;;;;6.42;83.30;99258.78;5071605;28;20075;-81
2021/04/19 08:31:02;;;;;;;30.38;15.95;;;;;;;6.53;83.96;99255.00;5018243;28;20056;-81
2021/04/19 08:33:34;;;;;;;24.52;14.52;;;;;;;6.46;84.40;99260.19;4972474;28;20074;-82
2021/04/19 08:41:14;;;;;;;27.67;16.23;;;;;;;6.70;84.79;99281.16;1292983;22;20324;-83
2021/04/19 08:43:41;;;;;;;26.05;16.00;;;;;;;6.81;84.51;99287.31;5091334;28;20056;-83
2021/04/19 08:46:08;;;;;;;31.20;17.00;;;;;;;6.66;84.19;99278.91;5091297;28;20048;-83
2021/04/19 08:48:35;;;;;;;24.80;16.83;;;;;;;6.73;85.11;99288.94;5094027;28;20063;-83
2021/04/19 08:51:04;;;;;;;33.42;17.90;;;;;;;6.62;84.92;99281.06;5094257;28;20051;-83
2021/04/19 08:53:34;;;;;;;28.30;17.02;;;;;;;6.76;84.82;99287.78;5093431;28;20549;-83
2021/04/19 08:56:03;;;;;;;31.90;17.52;;;;;;;6.76;85.24;99295.00;5094129;28;20062;-83
2021/04/19 08:58:34;;;;;;;28.75;16.77;;;;;;;6.73;84.78;99286.22;5094529;28;20567;-83
2021/04/19 09:01:15;;;;;;;;;;;;;;;6.77;85.00;99294.84;5095310;28;20101;-82
2021/04/19 09:03:42;;;;;;;28.30;17.25;;;;;;;6.78;84.83;99291.16;5082143;28;20264;-83
2021/04/19 09:06:15;;;;;;;28.98;15.48;;;;;;;6.68;84.04;99268.78;5093472;28;20044;-83
2021/04/19 09:08:41;;;;;;;30.05;17.92;;;;;;;6.88;84.49;99282.94;5094154;28;20552;-83
2021/04/19 09:11:13;;;;;;;24.02;15.95;;;;;;;6.98;84.50;99301.78;5093820;28;20098;-83
2021/04/19 09:13:42;;;;;;;34.22;18.83;;;;;;;6.98;84.18;99282.84;5094861;28;20158;-83
2021/04/19 09:16:18;;;;;;;30.93;18.03;;;;;;;7.00;84.24;99275.41;5093871;28;20047;-82
2021/04/19 09:18:58;;;;;;;32.85;16.65;;;;;;;6.94;84.02;99278.75;5094013;28;20496;-83
2021/04/19 09:21:41;;;;;;;;;;;;;;;7.17;85.21;99282.63;5088124;28;20050;-82
2021/04/19 09:24:09;;;;;;;32.72;16.13;;;;;;;7.31;83.41;99294.72;5094066;28;19927;-83
2021/04/19 09:26:51;;;;;;;28.00;16.90;;;;;;;7.43;82.95;99298.81;5093654;28;20052;-82
2021/04/19 09:29:47;;;;;;;39.13;17.23;;;;;;;7.37;82.86;99264.31;5093410;28;20052;-82
2021/04/19 09:32:23;;;;;;;34.13;17.63;;;;;;;7.29;84.07;99285.03;5094444;28;20066;-82
2021/04/19 09:34:53;;;;;;;28.40;15.85;;;;;;;7.30;82.26;99284.06;5094694;28;20064;-82
2021/04/19 09:37:24;;;;;;;34.22;18.55;;;;;;;7.31;83.29;99285.75;5072767;28;20476;-83
2021/04/19 09:39:57;;;;;;;31.70;16.85;;;;;;;7.35;82.45;99308.78;5067016;28;20053;-83
2021/04/19 09:43:06;;;;;;;27.83;15.57;;;;;;;7.35;81.90;99304.19;5054184;28;20048;-83
2021/04/19 09:45:48;;;;;;;27.02;17.38;;;;;;;7.28;83.43;99292.31;5053221;28;20106;-83
2021/04/19 09:48:40;;;;;;;31.88;17.88;;;;;;;7.30;82.72;99302.97;5081041;28;20094;-82
2021/04/19 09:54:10;;;;;;;32.28;17.33;;;;;;;7.40;81.59;99288.31;5089468;28;20480;-83
2021/04/19 09:56:41;;;;;;;29.38;16.77;;;;;;;7.29;81.55;99280.50;5088818;28;20081;-83
2021/04/19 09:59:09;;;;;;;26.38;16.15;;;;;;;7.29;82.16;99275.09;5078306;28;20054;-83
2021/04/19 10:01:38;;;;;;;29.13;16.77;;;;;;;7.34;82.09;99307.91;5091702;28;20075;-83
2021/04/19 10:04:11;;;;;;;35.95;17.83;;;;;;;7.38;82.66;99290.34;5078714;28;20110;-83
2021/04/19 10:06:43;;;;;;;30.73;17.33;;;;;;;7.51;82.63;99289.94;5072936;28;20408;-83
2021/04/19 10:09:14;;;;;;;29.67;17.33;;;;;;;7.65;82.98;99298.41;5068370;28;20041;-83
2021/04/19 10:14:24;;;;;;;30.55;16.67;;;;;;;7.71;82.94;99289.66;5023722;28;20096;-83
2021/04/19 10:16:51;;;;;;;30.00;17.00;;;;;;;7.77;82.40;99299.84;5058593;28;20049;-83
2021/04/19 10:19:25;;;;;;;27.27;16.73;;;;;;;7.98;81.91;99294.81;5052296;28;20049;-83
2021/04/19 10:22:08;;;;;;;31.58;16.85;;;;;;;8.02;81.70;99292.63;5066185;28;20056;-83
2021/04/19 10:24:56;;;;;;;28.70;16.48;;;;;;;8.14;80.92;99294.03;5074724;28;20127;-83
2021/04/19 10:27:55;;;;;;;27.10;15.35;;;;;;;7.78;80.82;99298.81;5073645;28;20040;-82
2021/04/19 10:30:26;;;;;;;25.13;16.00;;;;;;;7.63;82.27;99279.63;5061809;28;20045;-83
2021/04/19 10:41:36;;;;;;;36.40;17.30;;;;;;;8.19;80.85;99261.03;5287232;22;20056;-82
2021/04/19 10:44:12;;;;;;;37.55;17.38;;;;;;;8.40;80.80;99259.66;5091278;28;20047;-82
2021/04/19 10:46:48;;;;;;;30.48;17.88;;;;;;;8.61;80.42;99261.91;5092369;28;20051;-82
2021/04/19 10:50:09;;;;;;;29.40;16.20;;;;;;;8.67;78.68;99256.66;5091913;28;20392;-82
2021/04/19 11:39:24;;;;;;;27.63;13.85;;;;;;;9.16;75.90;99261.16;5055028;28;20179;-83
2021/04/19 11:45:21;;;;;;;25.25;13.18;;;;;;;9.20;74.60;99251.66;5016032;28;20056;-83
2021/04/19 11:48:35;;;;;;;21.58;14.07;;;;;;;9.14;75.06;99259.66;5068949;28;20341;-84
2021/04/19 11:58:13;;;;;;;28.33;13.98;;;;;;;8.46;78.72;99257.19;4988349;28;20051;-84
2021/04/19 12:07:59;;;;;;;24.20;12.98;;;;;;;8.26;81.02;99250.34;5008180;28;20093;-84
2021/04/19 12:18:09;;;;;;;;;;;;;;;;;;;;;
2021/04/19 13:40:44;;;;;;;15.40;9.40;;;;;;;10.14;67.77;99212.00;5110712;28;20044;-84
2021/04/19 13:53:50;;;;;;;12.95;8.02;;;;;;;9.94;68.73;99209.75;5057156;28;20055;-84
2021/04/19 13:59:36;;;;;;;15.25;8.77;;;;;;;10.38;68.43;99216.44;5099717;28;20488;-85
2021/04/19 14:05:48;;;;;;;14.38;9.50;;;;;;;10.55;70.47;99201.69;5072168;28;20052;-85
2021/04/19 14:15:30;;;;;;;;;;;;;;;;;;;;;
2021/04/19 14:22:20;;;;;;;14.55;8.57;;;;;;;10.66;69.02;99215.84;4967947;28;20471;-84
2021/04/19 14:28:27;;;;;;;15.35;9.57;;;;;;;10.54;67.62;99188.28;5048167;28;20052;-84
2021/04/19 14:31:18;;;;;;;17.20;9.63;;;;;;;11.00;66.40;99179.13;5044071;28;20487;-84
2021/04/19 15:30:59;;;;;;;19.10;10.75;;;;;;;10.94;64.40;99181.56;4903417;29;20071;-85
2021/04/19 15:33:55;;;;;;;19.45;10.80;;;;;;;11.00;65.04;99170.97;5026786;28;20087;-84
2021/04/19 15:39:57;;;;;;;26.05;12.80;;;;;;;11.43;64.97;99193.75;5118783;22;20380;-82
2021/04/19 15:55:58;;;;;;;24.08;13.02;;;;;;;11.57;63.19;99188.47;4823847;29;20070;-84
2021/04/19 16:01:49;;;;;;;24.77;14.50;;;;;;;11.17;64.44;99180.63;4902052;29;20296;-84
2021/04/19 16:04:16;;;;;;;;;;;;;;;11.26;64.67;99187.66;4917696;29;20143;-84
2021/04/19 16:06:44;;;;;;;24.27;13.45;;;;;;;11.16;63.26;99176.22;5033743;27;19919;-83
2021/04/19 16:09:17;;;;;;;27.73;12.93;;;;;;;11.10;63.26;99168.81;5119268;27;20055;-84
2021/04/19 16:11:45;;;;;;;30.23;15.75;;;;;;;11.40;63.05;99166.91;5138172;27;20138;-85
2021/04/19 16:14:11;;;;;;;27.35;14.40;;;;;;;11.31;63.76;99166.16;5139279;27;20051;-85
2021/04/19 16:16:38;;;;;;;26.52;14.10;;;;;;;11.23;63.65;99177.16;5139321;27;20051;-85
2021/04/19 16:19:06;;;;;;;30.10;14.02;;;;;;;11.02;64.20;99183.34;5139256;27;20134;-85
2021/04/19 16:21:32;;;;;;;32.17;15.35;;;;;;;10.78;65.07;99185.31;5138521;27;20054;-85
2021/04/19 16:23:59;;;;;;;32.08;17.50;;;;;;;10.87;64.90;99161.59;5138766;27;20505;-85
2021/04/19 16:26:28;;;;;;;34.03;16.75;;;;;;;10.77;65.15;99171.88;5138895;27;20074;-83
2021/04/19 16:28:55;;;;;;;28.80;15.77;;;;;;;10.76;66.09;99181.06;5139578;27;20047;-85
2021/04/19 16:31:21;;;;;;;28.60;15.82;;;;;;;10.77;66.00;99175.44;5138991;27;20062;-84
2021/04/19 16:33:53;;;;;;;27.92;15.32;;;;;;;10.68;64.48;99160.25;5129942;27;20043;-85
2021/04/19 16:36:28;;;;;;;31.65;15.57;;;;;;;10.59;65.07;99170.34;5118514;27;20043;-85
2021/04/19 16:39:02;;;;;;;29.92;15.80;;;;;;;10.62;66.33;99175.41;5124086;27;20496;-85
2021/04/19 16:41:31;;;;;;;28.65;16.35;;;;;;;10.60;66.06;99177.50;5118473;28;20052;-85
2021/04/19 16:44:03;;;;;;;28.77;15.43;;;;;;;10.50;66.60;99184.22;5118654;28;20461;-84
2021/04/19 16:46:34;;;;;;;29.08;15.32;;;;;;;10.24;66.58;99174.56;5117949;27;20054;-85
2021/04/19 16:49:01;;;;;;;31.05;15.93;;;;;;;10.34;66.87;99193.34;5114699;28;20557;-85
2021/04/19 16:51:31;;;;;;;30.35;16.92;;;;;;;10.01;67.72;99170.00;5118398;28;20108;-85
2021/04/19 16:53:58;;;;;;;29.23;15.30;;;;;;;10.15;67.57;99178.38;5118684;27;20044;-85
2021/04/19 16:56:24;;;;;;;32.45;16.67;;;;;;;10.23;66.43;99181.84;5118086;28;20070;-85
2021/04/19 16:58:54;;;;;;;32.17;16.90;;;;;;;10.33;66.77;99187.09;5118750;27;20689;-85
2021/04/19 17:01:23;;;;;;;28.42;15.45;;;;;;;10.22;66.95;99192.91;5117815;27;20055;-85
2021/04/19 17:03:51;;;;;;;28.63;15.80;;;;;;;10.11;67.17;99183.31;5118426;28;20047;-80
2021/04/19 17:06:20;;;;;;;24.33;13.70;;;;;;;9.76;67.09;99166.59;5113116;27;20047;-84
2021/04/19 17:08:51;;;;;;;25.92;14.05;;;;;;;10.03;66.63;99165.22;5113078;28;20050;-85
2021/04/19 17:11:23;;;;;;;29.92;15.52;;;;;;;10.16;66.38;99175.47;5114593;28;20483;-84
2021/04/19 17:13:49;;;;;;;32.42;15.70;;;;;;;10.19;66.09;99180.56;5114590;28;20209;-84
2021/04/19 17:16:16;;;;;;;25.55;13.18;;;;;;;10.06;66.78;99188.47;5113479;28;20052;-84
2021/04/19 17:18:42;;;;;;;24.95;14.10;;;;;;;9.91;66.93;99172.94;5114265;28;20122;-84
2021/04/19 17:21:08;;;;;;;25.83;14.13;;;;;;;9.97;66.32;99170.53;5114200;28;20055;-85
2021/04/19 17:23:35;;;;;;;26.95;14.23;;;;;;;9.86;66.28;99178.06;5111606;28;20128;-85
2021/04/19 17:26:02;;;;;;;28.88;15.18;;;;;;;9.96;66.90;99176.97;5114067;28;20043;-84
2021/04/19 17:28:30;;;;;;;27.38;14.88;;;;;;;10.02;66.15;99176.25;5114510;28;20044;-84
2021/04/19 17:30:57;;;;;;;26.17;13.68;;;;;;;9.90;67.29;99176.66;5113785;28;20044;-84
2021/04/19 17:33:23;;;;;;;30.80;13.82;;;;;;;9.75;68.92;99178.47;5114215;28;20101;-83
2021/04/19 17:35:53;;;;;;;24.25;13.25;;;;;;;9.76;69.51;99185.59;5113069;28;20052;-84
2021/04/19 17:38:22;;;;;;;28.88;14.95;;;;;;;9.69;69.10;99174.59;5113802;28;20051;-84
2021/04/19 17:40:48;;;;;;;24.67;13.90;;;;;;;9.67;69.47;99184.78;5096726;28;20097;-84